Time;durP1;ratioP1;P1;durP2;ratioP2;P2;SDS_P1;SDS_P2;PMS_P1;PMS_P2;Temp;Humidity;BMP_temperature;BMP_pressure;BME280_temperature;BME280_humidity;BME280_pressure;Samples;Min_cycle;Max_cycle;Signal;HPM_P1;HPM_P2
2023/06/04 00:00:30;;;;;;;6.60;2.35;;;9.90;99.90;;;;;;5122534;27;20038;-80
2023/06/04 00:02:55;;;;;;;4.53;2.35;;;9.90;99.90;;;;;;5109013;27;20030;-81
2023/06/04 00:05:25;;;;;;;5.07;2.50;;;9.80;99.90;;;;;;5125465;27;20035;-80
2023/06/04 00:07:51;;;;;;;7.95;2.88;;;9.80;99.90;;;;;;5121792;27;20042;-81
2023/06/04 00:10:17;;;;;;;6.65;3.15;;;9.80;99.90;;;;;;5119839;27;20115;-80
2023/06/04 00:12:42;;;;;;;7.78;3.25;;;9.70;99.90;;;;;;5121167;27;20050;-79
2023/06/04 00:15:08;;;;;;;4.25;2.53;;;9.70;99.90;;;;;;5101924;27;20026;-80
2023/06/04 00:17:34;;;;;;;3.03;2.22;;;9.70;99.90;;;;;;5110042;27;20015;-81
2023/06/04 00:19:59;;;;;;;5.15;2.75;;;9.70;99.90;;;;;;5115613;27;20034;-80
2023/06/04 00:22:25;;;;;;;6.15;2.50;;;9.70;99.90;;;;;;5112740;27;20062;-80
2023/06/04 00:24:51;;;;;;;5.18;3.20;;;9.70;99.90;;;;;;5114142;27;20020;-80
2023/06/04 00:27:16;;;;;;;4.10;2.75;;;9.80;99.90;;;;;;5119257;27;20476;-80
2023/06/04 00:29:45;;;;;;;5.32;3.08;;;9.70;99.90;;;;;;5106989;27;20023;-80
2023/06/04 00:32:10;;;;;;;5.97;2.20;;;9.70;99.90;;;;;;5111984;27;20072;-80
2023/06/04 00:34:36;;;;;;;9.93;2.85;;;9.60;99.90;;;;;;5114272;27;20020;-80
2023/06/04 00:37:02;;;;;;;3.38;2.67;;;9.60;99.90;;;;;;5120175;27;20043;-80
2023/06/04 00:39:27;;;;;;;13.60;3.70;;;9.60;99.90;;;;;;5114354;27;20035;-80
2023/06/04 00:41:54;;;;;;;9.27;2.92;;;9.50;99.90;;;;;;5118253;27;20116;-80
2023/06/04 00:44:21;;;;;;;6.88;3.70;;;9.50;99.90;;;;;;5106658;28;20024;-80
2023/06/04 00:46:49;;;;;;;7.10;3.17;;;9.40;99.90;;;;;;5123574;27;20356;-80
2023/06/04 00:49:14;;;;;;;5.38;2.88;;;9.30;99.90;;;;;;5108885;27;20031;-80
2023/06/04 00:51:40;;;;;;;5.03;2.70;;;9.30;99.90;;;;;;5113588;27;20495;-80
2023/06/04 00:54:08;;;;;;;8.88;3.08;;;9.30;99.90;;;;;;5117816;27;20087;-80
2023/06/04 00:56:38;;;;;;;9.27;2.88;;;9.30;99.90;;;;;;5116501;27;20027;-80
2023/06/04 00:59:06;;;;;;;4.22;2.17;;;9.30;99.90;;;;;;5107847;27;20015;-80
2023/06/04 01:01:57;;;;;;;5.50;2.20;;;9.30;99.90;;;;;;5110500;27;20046;-80
2023/06/04 01:04:40;;;;;;;2.90;2.47;;;9.30;99.90;;;;;;5110285;27;20028;-80
2023/06/04 01:07:08;;;;;;;6.00;3.10;;;9.30;99.90;;;;;;5111928;27;20373;-80
2023/06/04 01:09:35;;;;;;;5.53;3.20;;;9.20;99.90;;;;;;5119264;27;20039;-80
2023/06/04 01:12:04;;;;;;;3.22;2.60;;;9.20;99.90;;;;;;5111641;27;20011;-80
2023/06/04 01:14:30;;;;;;;5.82;3.30;;;9.10;99.90;;;;;;5107241;27;20032;-81
2023/06/04 01:17:03;;;;;;;4.57;2.90;;;9.10;99.90;;;;;;5123338;27;20479;-80
2023/06/04 01:19:29;;;;;;;6.72;2.80;;;9.10;99.90;;;;;;5118037;27;20047;-80
2023/06/04 01:22:03;;;;;;;4.72;2.75;;;9.10;99.90;;;;;;5112109;27;20027;-80
2023/06/04 01:24:31;;;;;;;4.32;2.50;;;9.10;99.90;;;;;;5112470;27;20024;-80
2023/06/04 01:26:56;;;;;;;4.70;2.50;;;9.00;99.90;;;;;;5098010;27;20047;-80
2023/06/04 01:29:23;;;;;;;3.38;2.50;;;9.00;99.90;;;;;;5110661;27;20331;-80
2023/06/04 01:31:53;;;;;;;4.50;2.97;;;9.00;99.90;;;;;;5114910;27;20360;-80
2023/06/04 01:34:19;;;;;;;6.10;2.88;;;8.90;99.90;;;;;;5113412;27;20031;-80
2023/06/04 01:36:44;;;;;;;4.97;2.92;;;8.90;99.90;;;;;;5116111;27;20019;-80
2023/06/04 01:39:10;;;;;;;4.88;2.40;;;8.80;99.90;;;;;;5106229;28;20418;-80
2023/06/04 01:41:35;;;;;;;4.10;2.70;;;8.80;99.90;;;;;;5109542;28;20020;-80
2023/06/04 01:44:01;;;;;;;4.40;3.22;;;8.80;99.90;;;;;;5108365;28;20019;-80
2023/06/04 01:46:27;;;;;;;3.67;2.60;;;8.80;99.90;;;;;;5107378;27;20102;-80
2023/06/04 01:48:52;;;;;;;4.13;2.47;;;8.80;99.90;;;;;;5110025;27;20248;-80
2023/06/04 01:51:18;;;;;;;5.45;2.38;;;8.80;99.90;;;;;;5107743;28;20038;-80
2023/06/04 01:53:43;;;;;;;3.53;2.72;;;8.70;99.90;;;;;;5112736;27;20015;-80
2023/06/04 01:56:09;;;;;;;5.60;3.08;;;8.70;99.90;;;;;;5117369;27;20051;-80
2023/06/04 01:58:35;;;;;;;4.40;2.65;;;8.80;99.90;;;;;;5108710;28;20023;-80
2023/06/04 02:01:02;;;;;;;13.68;2.95;;;8.80;99.90;;;;;;5107157;27;20080;-80
2023/06/04 02:03:32;;;;;;;5.80;3.17;;;8.70;99.90;;;;;;5103200;28;20089;-80
2023/06/04 02:05:57;;;;;;;4.38;3.05;;;8.70;99.90;;;;;;5108865;28;20327;-80
2023/06/04 02:08:25;;;;;;;5.35;3.20;;;8.70;99.90;;;;;;5108756;28;20528;-80
2023/06/04 02:10:50;;;;;;;5.25;2.60;;;8.70;99.90;;;;;;5107311;27;20042;-80
2023/06/04 02:13:16;;;;;;;6.28;2.65;;;8.60;99.90;;;;;;5108583;28;20406;-79
2023/06/04 02:15:42;;;;;;;8.10;3.20;;;8.60;99.90;;;;;;5112830;27;20020;-80
2023/06/04 02:18:21;;;;;;;4.20;3.08;;;8.50;99.90;;;;;;5115238;27;20048;-80
2023/06/04 02:20:48;;;;;;;5.53;3.50;;;8.50;99.90;;;;;;5102286;28;20045;-80
2023/06/04 02:23:15;;;;;;;3.95;2.72;;;8.50;99.90;;;;;;5111999;27;20119;-80
2023/06/04 02:25:41;;;;;;;7.38;2.55;;;8.40;99.90;;;;;;5112396;27;20480;-80
2023/06/04 02:28:07;;;;;;;3.65;2.45;;;8.40;99.90;;;;;;5118581;27;20023;-80
2023/06/04 02:30:35;;;;;;;4.03;2.92;;;8.40;99.90;;;;;;5108429;28;20106;-80
2023/06/04 02:33:03;;;;;;;4.70;2.92;;;8.40;99.90;;;;;;5108643;28;20097;-80
2023/06/04 02:35:32;;;;;;;4.85;2.70;;;8.40;99.90;;;;;;5118390;27;20019;-80
2023/06/04 02:37:57;;;;;;;3.03;2.53;;;8.40;99.90;;;;;;5115704;27;20452;-80
2023/06/04 02:40:26;;;;;;;4.13;2.60;;;8.30;99.90;;;;;;5103990;27;20049;-80
2023/06/04 02:42:53;;;;;;;3.10;2.47;;;8.30;99.90;;;;;;5112739;27;20059;-80
2023/06/04 02:45:19;;;;;;;4.85;3.13;;;8.30;99.90;;;;;;5108779;28;20476;-80
2023/06/04 02:47:45;;;;;;;7.22;2.78;;;8.20;99.90;;;;;;5108753;27;20381;-80
2023/06/04 02:50:13;;;;;;;5.15;2.60;;;8.20;99.90;;;;;;5112027;27;20427;-80
2023/06/04 02:52:39;;;;;;;6.28;2.90;;;8.20;99.90;;;;;;5113192;27;20051;-80
2023/06/04 02:55:06;;;;;;;7.85;3.60;;;8.10;99.90;;;;;;5109308;27;20062;-80
2023/06/04 02:57:32;;;;;;;6.05;2.90;;;8.10;99.90;;;;;;5113156;27;20688;-80
2023/06/04 02:59:59;;;;;;;7.85;2.85;;;8.10;99.90;;;;;;5106928;27;20028;-80
2023/06/04 03:02:24;;;;;;;4.68;2.88;;;8.10;99.90;;;;;;5106404;28;20407;-80
2023/06/04 03:04:51;;;;;;;4.05;2.75;;;8.20;99.90;;;;;;5114446;28;20183;-80
2023/06/04 03:07:20;;;;;;;3.38;2.70;;;8.10;99.90;;;;;;5123232;27;20098;-80
2023/06/04 03:09:46;;;;;;;6.70;2.80;;;8.10;99.90;;;;;;5116192;27;20031;-80
2023/06/04 03:12:12;;;;;;;5.85;2.92;;;8.10;99.90;;;;;;5117636;27;20019;-80
2023/06/04 03:14:37;;;;;;;10.98;3.55;;;8.00;99.90;;;;;;5109138;28;20031;-80
2023/06/04 03:17:07;;;;;;;4.35;2.80;;;8.00;99.90;;;;;;5111772;27;20380;-80
2023/06/04 03:19:37;;;;;;;10.55;3.40;;;7.90;99.90;;;;;;5107602;28;20091;-80
2023/06/04 03:22:06;;;;;;;3.13;2.40;;;7.90;99.90;;;;;;5107908;28;20177;-80
2023/06/04 03:24:36;;;;;;;6.07;2.97;;;7.90;99.90;;;;;;5107789;28;20106;-80
2023/06/04 03:27:03;;;;;;;3.78;2.65;;;7.90;99.90;;;;;;5104293;28;20044;-80
2023/06/04 03:29:30;;;;;;;6.15;2.42;;;7.90;99.90;;;;;;5105715;28;20050;-80
2023/06/04 03:31:56;;;;;;;4.05;2.70;;;7.90;99.90;;;;;;5105759;28;20076;-80
2023/06/04 03:34:24;;;;;;;3.50;2.70;;;7.90;99.90;;;;;;5105153;28;20418;-80
2023/06/04 03:36:54;;;;;;;5.53;2.60;;;7.90;99.90;;;;;;5107762;28;20031;-80
2023/06/04 03:39:20;;;;;;;5.50;2.88;;;7.90;99.90;;;;;;5103237;28;20137;-80
2023/06/04 03:41:45;;;;;;;6.28;2.92;;;7.90;99.90;;;;;;5109421;28;20031;-80
2023/06/04 03:44:17;;;;;;;5.07;2.63;;;7.90;99.90;;;;;;5102918;28;20024;-81
2023/06/04 03:46:44;;;;;;;6.35;3.72;;;7.90;99.90;;;;;;5107251;28;20461;-80
2023/06/04 03:49:10;;;;;;;3.92;3.10;;;7.90;99.90;;;;;;5107374;28;20019;-80
2023/06/04 03:51:37;;;;;;;5.22;2.88;;;7.90;99.90;;;;;;5107331;28;20395;-80
2023/06/04 03:54:03;;;;;;;4.35;2.92;;;7.90;99.90;;;;;;5105284;28;20023;-80
2023/06/04 03:56:28;;;;;;;7.88;2.60;;;8.00;99.90;;;;;;5105456;28;20059;-80
2023/06/04 03:58:54;;;;;;;4.57;2.60;;;8.00;99.90;;;;;;5106129;28;20108;-80
2023/06/04 04:01:20;;;;;;;6.07;3.15;;;8.00;99.90;;;;;;5107255;28;20372;-80
2023/06/04 04:03:49;;;;;;;4.78;2.15;;;8.00;99.90;;;;;;5120492;28;20420;-80
2023/06/04 04:06:15;;;;;;;4.78;2.58;;;8.10;99.90;;;;;;5111859;28;20081;-80
2023/06/04 04:08:42;;;;;;;5.97;2.75;;;8.10;99.90;;;;;;5114000;27;20024;-80
2023/06/04 04:11:17;;;;;;;3.67;2.45;;;8.10;99.90;;;;;;5112871;27;20118;-80
2023/06/04 04:13:44;;;;;;;5.47;2.53;;;8.20;99.90;;;;;;5092412;27;20015;-80
2023/06/04 04:16:10;;;;;;;3.80;2.53;;;8.30;99.90;;;;;;5114639;27;20024;-80
2023/06/04 04:18:36;;;;;;;4.15;2.33;;;8.40;99.90;;;;;;5114003;27;20024;-80
2023/06/04 04:21:02;;;;;;;6.28;2.30;;;8.40;99.90;;;;;;5118269;27;20058;-79
2023/06/04 04:23:29;;;;;;;3.55;2.30;;;8.50;99.90;;;;;;5111717;27;20026;-80
2023/06/04 04:25:56;;;;;;;3.92;2.38;;;8.60;99.90;;;;;;5097130;28;20059;-80
2023/06/04 04:28:23;;;;;;;4.22;2.63;;;8.60;99.90;;;;;;5105164;27;20016;-80
2023/06/04 04:30:49;;;;;;;2.92;1.80;;;8.70;99.90;;;;;;5122388;27;20559;-80
2023/06/04 04:33:15;;;;;;;2.95;2.15;;;8.70;99.90;;;;;;5121716;27;20047;-80
2023/06/04 04:35:44;;;;;;;4.03;2.20;;;8.80;99.90;;;;;;5111926;27;20020;-80
2023/06/04 04:38:10;;;;;;;3.60;2.53;;;8.90;99.90;;;;;;5109871;27;20472;-80
2023/06/04 04:40:36;;;;;;;2.35;2.13;;;9.00;99.90;;;;;;5110025;28;20038;-80
2023/06/04 04:43:02;;;;;;;4.90;2.20;;;9.10;99.90;;;;;;5113204;27;20025;-80
2023/06/04 04:45:28;;;;;;;6.88;2.63;;;9.20;99.90;;;;;;5115158;27;20096;-80
2023/06/04 04:47:53;;;;;;;4.13;2.63;;;9.20;99.90;;;;;;5112078;27;20019;-80
2023/06/04 04:50:19;;;;;;;5.90;3.10;;;9.30;99.90;;;;;;5111741;28;20039;-81
2023/06/04 04:52:45;;;;;;;4.13;2.92;;;9.40;99.90;;;;;;5124896;27;20020;-80
2023/06/04 04:55:11;;;;;;;5.95;3.38;;;9.40;99.90;;;;;;5124346;27;20046;-80
2023/06/04 04:57:38;;;;;;;6.25;3.22;;;9.50;99.90;;;;;;5115827;27;20019;-80
2023/06/04 05:00:06;;;;;;;6.68;3.40;;;9.60;99.90;;;;;;5121505;27;20020;-80
2023/06/04 05:02:32;;;;;;;2.63;2.33;;;9.70;99.90;;;;;;5114172;27;20023;-80
2023/06/04 05:04:57;;;;;;;3.42;2.70;;;9.70;99.90;;;;;;5110058;27;20027;-80
2023/06/04 05:07:24;;;;;;;5.72;3.13;;;9.80;99.90;;;;;;5113665;27;20023;-80
2023/06/04 05:09:50;;;;;;;4.10;2.58;;;9.90;99.90;;;;;;5112686;27;20032;-80
2023/06/04 05:12:16;;;;;;;4.22;2.60;;;9.90;99.90;;;;;;5111808;27;20030;-80
2023/06/04 05:14:41;;;;;;;4.10;3.33;;;10.10;99.90;;;;;;5115561;27;20026;-80
2023/06/04 05:17:10;;;;;;;8.02;3.85;;;10.10;99.90;;;;;;5098594;28;20028;-80
2023/06/04 05:19:37;;;;;;;12.40;4.60;;;10.30;99.90;;;;;;5113200;27;20039;-80
2023/06/04 05:22:02;;;;;;;7.53;4.50;;;10.40;99.90;;;;;;5116632;27;20057;-80
2023/06/04 05:24:28;;;;;;;6.45;3.88;;;10.50;99.90;;;;;;5120613;27;20047;-80
2023/06/04 05:26:57;;;;;;;10.75;3.35;;;10.60;99.90;;;;;;5102543;27;20052;-81
2023/06/04 05:29:23;;;;;;;6.13;3.15;;;10.80;99.90;;;;;;5110996;27;20508;-80
2023/06/04 05:31:49;;;;;;;6.57;3.22;;;10.90;99.90;;;;;;5110943;27;20071;-80
2023/06/04 05:34:16;;;;;;;15.82;4.18;;;11.10;99.90;;;;;;5105533;27;20031;-80
2023/06/04 05:36:43;;;;;;;10.02;3.60;;;11.20;99.90;;;;;;5120099;27;20377;-80
2023/06/04 05:39:11;;;;;;;8.02;3.63;;;11.40;99.90;;;;;;5104119;27;20071;-80
2023/06/04 05:41:37;;;;;;;8.10;3.28;;;11.40;99.90;;;;;;5117471;27;20015;-80
2023/06/04 05:44:03;;;;;;;20.08;3.90;;;11.60;99.90;;;;;;5116649;27;20023;-80
2023/06/04 05:46:29;;;;;;;9.82;3.78;;;11.70;99.90;;;;;;5119275;27;20270;-80
2023/06/04 05:48:54;;;;;;;14.05;3.30;;;11.70;99.90;;;;;;5099180;27;20036;-81
2023/06/04 05:51:20;;;;;;;11.23;3.63;;;11.90;99.90;;;;;;5113199;27;20123;-80
2023/06/04 05:53:47;;;;;;;12.63;3.72;;;11.90;99.90;;;;;;5116998;27;20028;-80
2023/06/04 05:56:13;;;;;;;6.03;2.92;;;12.00;99.90;;;;;;5113909;27;20482;-80
2023/06/04 05:58:38;;;;;;;7.75;3.00;;;12.10;99.90;;;;;;5110516;27;20024;-80
2023/06/04 06:01:04;;;;;;;8.60;3.53;;;12.20;99.90;;;;;;5115891;27;20471;-80
2023/06/04 06:03:29;;;;;;;6.03;3.05;;;12.30;99.90;;;;;;5112064;27;20431;-81
2023/06/04 06:05:57;;;;;;;5.30;3.42;;;12.40;99.90;;;;;;5113261;27;20043;-80
2023/06/04 06:08:22;;;;;;;12.80;5.07;;;12.40;99.90;;;;;;5109901;27;20024;-80
2023/06/04 06:10:48;;;;;;;4.57;2.40;;;12.40;99.90;;;;;;5109114;27;20047;-80
2023/06/04 06:13:15;;;;;;;5.22;3.00;;;12.50;99.90;;;;;;5115824;27;20521;-81
2023/06/04 06:15:40;;;;;;;3.88;2.42;;;12.50;99.90;;;;;;5111166;27;20047;-81
2023/06/04 06:18:06;;;;;;;7.05;2.80;;;12.60;99.90;;;;;;5119762;27;20055;-80
2023/06/04 06:20:32;;;;;;;4.72;2.80;;;12.60;99.90;;;;;;5113238;27;20016;-80
2023/06/04 06:22:57;;;;;;;5.82;3.15;;;12.60;99.90;;;;;;5118284;27;20394;-80
2023/06/04 06:25:23;;;;;;;7.90;3.08;;;12.60;99.90;;;;;;5123827;27;20043;-80
2023/06/04 06:27:49;;;;;;;6.82;2.63;;;12.70;99.90;;;;;;5112464;27;20460;-80
2023/06/04 06:30:14;;;;;;;12.40;3.90;;;12.70;99.90;;;;;;5110688;27;20508;-81
2023/06/04 06:32:40;;;;;;;5.25;2.90;;;12.80;99.90;;;;;;5119203;27;20460;-80
2023/06/04 06:35:07;;;;;;;6.68;2.97;;;12.80;99.90;;;;;;5122044;27;20024;-80
2023/06/04 06:37:33;;;;;;;6.30;3.30;;;12.80;99.90;;;;;;5104028;27;20045;-80
2023/06/04 06:39:58;;;;;;;12.02;3.63;;;12.80;99.90;;;;;;5112106;27;20535;-81
2023/06/04 06:42:24;;;;;;;6.00;3.30;;;12.90;99.90;;;;;;5111216;27;20475;-81
2023/06/04 06:44:50;;;;;;;12.00;3.95;;;12.90;99.90;;;;;;5118633;27;20034;-81
2023/06/04 06:47:16;;;;;;;8.38;2.97;;;12.90;99.90;;;;;;5115047;27;20422;-81
2023/06/04 06:49:42;;;;;;;8.50;2.88;;;12.90;99.90;;;;;;5110424;27;20007;-81
2023/06/04 06:52:07;;;;;;;12.63;3.05;;;13.00;99.90;;;;;;5112178;27;20353;-81
2023/06/04 06:54:33;;;;;;;12.90;4.30;;;13.00;99.90;;;;;;5114213;27;20027;-80
2023/06/04 06:56:59;;;;;;;12.85;3.35;;;13.00;99.90;;;;;;5116803;27;20145;-81
2023/06/04 06:59:25;;;;;;;8.48;3.88;;;13.10;99.90;;;;;;5106817;27;20182;-81
2023/06/04 07:01:50;;;;;;;5.45;3.00;;;13.20;99.90;;;;;;5107982;27;20115;-81
2023/06/04 07:04:17;;;;;;;8.52;3.58;;;13.20;99.90;;;;;;5114060;27;20053;-81
2023/06/04 07:06:43;;;;;;;5.72;3.20;;;13.20;99.90;;;;;;5110302;28;20456;-81
2023/06/04 07:09:09;;;;;;;14.55;3.35;;;13.30;99.90;;;;;;5102293;27;20337;-81
2023/06/04 07:11:34;;;;;;;7.43;3.28;;;13.30;99.90;;;;;;5116136;27;20034;-80
2023/06/04 07:14:02;;;;;;;5.00;3.22;;;13.40;99.90;;;;;;5100413;28;20145;-82
2023/06/04 07:16:28;;;;;;;4.72;3.00;;;13.50;99.90;;;;;;5105293;27;20036;-81
2023/06/04 07:18:53;;;;;;;7.18;3.05;;;13.50;99.90;;;;;;5101299;27;20049;-81
2023/06/04 07:21:19;;;;;;;8.65;3.35;;;13.60;99.90;;;;;;5103579;28;20080;-82
2023/06/04 07:23:47;;;;;;;5.75;2.88;;;13.70;99.90;;;;;;5104335;28;20573;-82
2023/06/04 07:26:12;;;;;;;6.93;3.10;;;13.70;99.90;;;;;;5103537;28;20356;-82
2023/06/04 07:28:38;;;;;;;7.05;2.92;;;13.80;99.90;;;;;;5118057;28;20102;-82
2023/06/04 07:31:03;;;;;;;7.43;2.97;;;13.80;99.90;;;;;;5109359;28;20075;-83
2023/06/04 07:33:29;;;;;;;8.23;3.00;;;13.90;99.90;;;;;;5116961;28;20118;-82
2023/06/04 07:35:54;;;;;;;6.68;2.33;;;13.90;99.90;;;;;;5106908;28;20514;-82
2023/06/04 07:38:20;;;;;;;6.05;3.40;;;14.00;99.90;;;;;;5105739;28;20023;-82
2023/06/04 07:40:47;;;;;;;3.20;2.50;;;14.10;99.90;;;;;;5093975;27;20118;-83
2023/06/04 07:43:13;;;;;;;7.50;2.80;;;14.20;99.90;;;;;;5091431;27;20028;-82
2023/06/04 07:45:38;;;;;;;7.32;2.63;;;14.30;99.90;;;;;;5107304;27;20061;-82
2023/06/04 07:48:04;;;;;;;4.78;2.17;;;14.40;99.90;;;;;;5100469;28;20084;-83
2023/06/04 07:50:30;;;;;;;5.47;2.30;;;14.40;99.90;;;;;;5105272;27;20130;-82
2023/06/04 07:52:55;;;;;;;7.13;2.90;;;14.50;99.90;;;;;;5113346;27;20115;-82
2023/06/04 07:55:21;;;;;;;6.32;2.30;;;14.50;99.90;;;;;;5110300;27;20027;-82
2023/06/04 07:57:47;;;;;;;4.80;2.50;;;14.50;99.90;;;;;;5112692;27;20044;-83
2023/06/04 08:00:14;;;;;;;9.48;2.65;;;14.60;99.90;;;;;;5114607;27;20045;-83
2023/06/04 08:02:40;;;;;;;5.93;2.60;;;14.70;99.90;;;;;;5111289;27;20016;-83
2023/06/04 08:05:05;;;;;;;3.72;2.20;;;14.90;99.90;;;;;;5108453;27;20375;-82
2023/06/04 08:07:31;;;;;;;4.40;1.90;;;14.90;99.90;;;;;;5106037;27;20023;-83
2023/06/04 08:09:56;;;;;;;6.43;2.47;;;15.10;99.90;;;;;;5110739;27;20365;-82
2023/06/04 08:12:22;;;;;;;2.95;2.00;;;15.20;99.90;;;;;;5106786;27;20062;-82
2023/06/04 08:14:50;;;;;;;4.70;1.60;;;15.30;99.90;;;;;;5112958;27;20023;-83
2023/06/04 08:17:15;;;;;;;2.38;1.63;;;15.40;99.90;;;;;;5107294;27;20031;-83
2023/06/04 08:19:41;;;;;;;2.95;1.80;;;15.50;99.90;;;;;;5109191;27;20105;-83
2023/06/04 08:22:09;;;;;;;4.47;1.73;;;15.60;99.90;;;;;;5105468;27;20119;-83
2023/06/04 08:24:34;;;;;;;3.92;1.90;;;15.60;99.90;;;;;;5112356;27;20028;-82
2023/06/04 08:27:00;;;;;;;5.55;2.58;;;15.80;99.90;;;;;;5093405;28;20492;-83
2023/06/04 08:29:25;;;;;;;3.92;1.70;;;15.90;99.90;;;;;;5103145;27;20035;-83
2023/06/04 08:31:51;;;;;;;7.32;1.90;;;15.90;99.90;;;;;;5109018;27;20054;-82
2023/06/04 08:34:17;;;;;;;2.70;1.70;;;16.00;99.30;;;;;;5104669;28;20031;-83
2023/06/04 08:36:42;;;;;;;3.88;1.42;;;16.00;98.10;;;;;;5117614;27;20570;-83
2023/06/04 08:39:09;;;;;;;3.75;1.58;;;16.10;93.50;;;;;;5107078;27;20287;-84
2023/06/04 08:41:47;;;;;;;2.15;1.25;;;16.10;94.10;;;;;;5106840;27;20596;-83
2023/06/04 08:44:14;;;;;;;7.90;1.90;;;16.20;92.00;;;;;;5105253;27;20035;-83
2023/06/04 08:46:40;;;;;;;5.10;1.52;;;16.20;90.70;;;;;;5102185;27;20058;-84
2023/06/04 08:49:07;;;;;;;6.85;1.27;;;16.30;82.70;;;;;;5100524;27;20036;-83
2023/06/04 08:51:36;;;;;;;5.07;1.50;;;16.30;72.30;;;;;;5110517;27;20041;-83
2023/06/04 08:54:04;;;;;;;5.88;1.40;;;16.40;68.70;;;;;;5103289;27;20302;-82
2023/06/04 08:56:32;;;;;;;4.00;1.30;;;16.50;71.00;;;;;;5105005;27;20020;-81
2023/06/04 08:59:05;;;;;;;4.22;1.70;;;16.50;61.90;;;;;;5108123;27;20491;-82
2023/06/04 09:01:36;;;;;;;4.05;1.48;;;16.60;64.30;;;;;;5108922;27;20465;-81
2023/06/04 09:04:08;;;;;;;1.30;1.02;;;16.60;61.20;;;;;;5104706;27;20024;-81
2023/06/04 09:06:34;;;;;;;6.47;1.60;;;16.70;65.00;;;;;;5098481;27;20028;-82
2023/06/04 09:09:05;;;;;;;3.85;1.55;;;16.80;63.90;;;;;;5109618;27;20038;-82
2023/06/04 09:11:37;;;;;;;1.33;1.23;;;16.80;61.60;;;;;;5108013;27;20039;-82
2023/06/04 09:14:08;;;;;;;2.13;1.10;;;16.80;63.50;;;;;;5118476;27;20480;-82
2023/06/04 09:16:44;;;;;;;4.82;1.42;;;16.80;62.40;;;;;;5102103;27;20028;-82
2023/06/04 09:19:09;;;;;;;3.90;1.35;;;16.90;61.30;;;;;;5106694;27;20169;-82
2023/06/04 09:21:49;;;;;;;4.03;1.60;;;16.90;61.10;;;;;;5116889;27;20076;-81
2023/06/04 09:24:15;;;;;;;3.65;1.30;;;17.00;61.80;;;;;;5113197;27;20027;-82
2023/06/04 09:26:40;;;;;;;2.70;1.45;;;17.00;59.90;;;;;;5120115;27;20496;-81
2023/06/04 09:29:06;;;;;;;4.97;1.35;;;17.10;63.70;;;;;;5117083;27;20528;-81
2023/06/04 09:31:37;;;;;;;7.07;1.38;;;17.20;63.10;;;;;;5118841;27;20503;-81
2023/06/04 09:34:03;;;;;;;6.95;1.60;;;17.30;57.50;;;;;;5094058;27;20028;-82
2023/06/04 09:36:35;;;;;;;8.68;1.40;;;17.40;55.90;;;;;;5115231;27;20024;-82
2023/06/04 09:39:17;;;;;;;8.68;1.75;;;17.40;56.90;;;;;;5116546;27;20046;-81
2023/06/04 09:41:43;;;;;;;2.70;1.15;;;17.40;57.50;;;;;;5114598;27;20031;-81
2023/06/04 09:44:10;;;;;;;10.27;1.52;;;17.40;59.90;;;;;;5125984;27;20506;-81
2023/06/04 09:46:36;;;;;;;4.57;1.20;;;17.40;59.80;;;;;;5127237;27;20031;-81
2023/06/04 09:49:06;;;;;;;8.20;1.42;;;17.50;60.40;;;;;;5117616;27;20027;-81
2023/06/04 09:51:32;;;;;;;10.48;2.28;;;17.50;57.60;;;;;;5111996;27;20127;-82
2023/06/04 09:53:59;;;;;;;5.07;1.25;;;17.60;60.00;;;;;;5110549;27;20055;-81
2023/06/04 09:56:26;;;;;;;2.85;1.58;;;17.60;58.50;;;;;;5117409;27;20019;-82
2023/06/04 09:58:57;;;;;;;10.40;2.03;;;17.60;58.80;;;;;;5124622;27;20032;-81
2023/06/04 10:01:26;;;;;;;12.35;1.80;;;17.70;57.70;;;;;;5105094;27;20123;-79
2023/06/04 10:03:52;;;;;;;4.20;1.20;;;17.70;58.50;;;;;;5102570;27;20118;-82
2023/06/04 10:06:22;;;;;;;5.40;1.60;;;17.80;56.80;;;;;;5113347;27;20361;-80
2023/06/04 10:08:50;;;;;;;10.88;1.77;;;17.80;56.40;;;;;;5105222;27;20027;-79
2023/06/04 10:11:22;;;;;;;5.93;1.55;;;17.90;56.70;;;;;;5088948;28;20031;-81
2023/06/04 10:14:02;;;;;;;4.05;1.13;;;18.00;56.20;;;;;;5123377;27;20461;-82
2023/06/04 10:16:31;;;;;;;6.93;1.73;;;18.00;55.20;;;;;;5123805;27;20384;-82
2023/06/04 10:18:57;;;;;;;1.52;1.10;;;18.00;55.40;;;;;;5117551;27;20042;-81
2023/06/04 10:21:23;;;;;;;5.57;1.83;;;18.10;54.90;;;;;;5107045;27;20450;-82
2023/06/04 10:23:50;;;;;;;5.15;1.50;;;18.10;55.50;;;;;;5115873;27;20032;-81
2023/06/04 10:26:16;;;;;;;3.42;1.27;;;18.20;56.20;;;;;;5106488;28;20135;-81
2023/06/04 10:28:42;;;;;;;5.00;1.33;;;18.20;56.70;;;;;;5103523;27;20495;-82
2023/06/04 10:31:12;;;;;;;3.45;1.45;;;18.20;55.30;;;;;;5109220;27;20039;-81
2023/06/04 10:33:39;;;;;;;1.65;1.20;;;18.30;53.40;;;;;;5117155;27;20019;-82
2023/06/04 10:36:21;;;;;;;4.03;1.75;;;18.30;53.90;;;;;;5125676;27;20027;-81
2023/06/04 10:38:52;;;;;;;2.50;1.58;;;18.30;55.30;;;;;;5113461;27;20035;-82
2023/06/04 10:41:18;;;;;;;4.80;1.40;;;18.30;55.60;;;;;;5106432;27;20050;-82
2023/06/04 10:43:51;;;;;;;6.50;1.80;;;18.40;53.80;;;;;;5112150;27;20080;-82
2023/06/04 10:46:19;;;;;;;10.70;1.67;;;18.40;53.00;;;;;;5111289;27;20472;-82
2023/06/04 10:48:52;;;;;;;11.50;1.75;;;18.40;51.70;;;;;;5107509;27;20019;-80
2023/06/04 10:51:34;;;;;;;4.15;1.77;;;18.40;51.30;;;;;;5118603;27;20080;-81
2023/06/04 10:54:01;;;;;;;4.60;1.70;;;18.40;51.50;;;;;;5110645;27;20116;-81
2023/06/04 10:56:33;;;;;;;1.58;1.10;;;18.40;52.30;;;;;;5118815;27;20027;-82
2023/06/04 10:59:00;;;;;;;1.85;1.27;;;18.40;51.90;;;;;;5101476;27;20485;-81
2023/06/04 11:01:26;;;;;;;6.72;1.40;;;18.50;52.80;;;;;;5095954;27;20028;-82
2023/06/04 11:03:51;;;;;;;7.05;1.70;;;18.50;52.20;;;;;;5114534;27;20028;-82
2023/06/04 11:06:17;;;;;;;3.25;1.25;;;18.50;51.40;;;;;;5101609;28;20027;-82
2023/06/04 11:08:43;;;;;;;5.03;1.38;;;18.40;51.00;;;;;;5118209;27;20102;-81
2023/06/04 11:11:15;;;;;;;2.40;1.40;;;18.50;51.90;;;;;;5112740;27;20135;-81
2023/06/04 11:13:42;;;;;;;1.80;1.27;;;18.40;54.30;;;;;;5115876;27;20015;-82
2023/06/04 11:16:15;;;;;;;3.10;1.17;;;18.60;54.90;;;;;;5105501;27;20099;-82
2023/06/04 11:18:41;;;;;;;2.25;1.00;;;18.70;51.50;;;;;;5115055;27;20076;-82
2023/06/04 11:21:07;;;;;;;4.40;1.50;;;18.80;50.90;;;;;;5118548;28;20476;-82
2023/06/04 11:23:33;;;;;;;2.72;1.15;;;18.80;49.20;;;;;;5112339;28;20028;-81
2023/06/04 11:25:59;;;;;;;2.08;1.38;;;18.90;49.10;;;;;;5116538;28;20067;-82
2023/06/04 11:28:25;;;;;;;5.05;1.35;;;18.80;50.40;;;;;;5097598;28;20035;-82
2023/06/04 11:31:05;;;;;;;2.45;1.30;;;18.90;49.30;;;;;;5111199;28;20035;-82
2023/06/04 11:33:44;;;;;;;4.55;1.40;;;18.80;48.70;;;;;;5107753;28;20400;-81
2023/06/04 11:36:10;;;;;;;4.75;1.38;;;18.80;49.60;;;;;;5096832;28;20392;-81
2023/06/04 11:38:36;;;;;;;7.07;1.38;;;18.80;50.00;;;;;;5104937;28;20035;-81
2023/06/04 11:41:04;;;;;;;2.28;1.30;;;18.90;51.20;;;;;;5100869;28;20032;-81
2023/06/04 11:43:31;;;;;;;6.13;2.10;;;18.90;51.30;;;;;;5103064;28;20572;-81
2023/06/04 11:45:57;;;;;;;1.52;1.30;;;19.00;50.60;;;;;;5103277;28;20390;-81
2023/06/04 11:48:23;;;;;;;2.05;1.23;;;19.10;50.10;;;;;;5109950;28;20024;-81
2023/06/04 11:50:49;;;;;;;3.63;1.42;;;19.30;49.50;;;;;;5119526;28;20054;-81
2023/06/04 11:53:15;;;;;;;9.18;1.27;;;19.30;48.00;;;;;;5108489;28;20412;-82
2023/06/04 11:55:41;;;;;;;2.47;1.40;;;19.30;48.30;;;;;;5106809;28;20127;-82
2023/06/04 11:58:07;;;;;;;3.50;1.73;;;19.30;48.30;;;;;;5104465;28;20476;-82
2023/06/04 12:00:33;;;;;;;4.22;1.80;;;19.30;48.20;;;;;;5113386;28;20115;-82
2023/06/04 12:02:59;;;;;;;3.55;1.52;;;19.30;47.20;;;;;;5108475;28;20055;-82
2023/06/04 12:05:31;;;;;;;4.55;2.00;;;19.30;46.20;;;;;;5118395;28;20076;-82
2023/06/04 12:08:09;;;;;;;4.10;1.27;;;19.30;46.70;;;;;;5103324;28;20035;-82
2023/06/04 12:10:42;;;;;;;3.08;1.35;;;19.30;46.60;;;;;;5085124;28;20032;-81
2023/06/04 12:13:08;;;;;;;2.63;1.35;;;19.30;47.30;;;;;;5113288;28;20027;-82
2023/06/04 12:15:34;;;;;;;1.83;1.20;;;19.40;47.20;;;;;;5103976;28;20023;-82
2023/06/04 12:18:00;;;;;;;3.42;1.63;;;19.40;45.10;;;;;;5099535;28;20028;-82
2023/06/04 12:20:35;;;;;;;3.47;1.33;;;19.50;44.60;;;;;;5111520;28;20457;-82
2023/06/04 12:23:01;;;;;;;6.35;1.60;;;19.50;45.10;;;;;;5120952;28;20027;-82
2023/06/04 12:25:28;;;;;;;1.98;1.38;;;19.50;46.00;;;;;;5107441;28;20048;-82
2023/06/04 12:27:54;;;;;;;4.25;1.45;;;19.50;46.30;;;;;;5116034;27;20098;-80
2023/06/04 12:30:20;;;;;;;6.47;2.38;;;19.50;46.30;;;;;;5114868;27;20134;-82
2023/06/04 12:32:46;;;;;;;3.08;1.33;;;19.50;46.60;;;;;;5090757;27;20036;-82
2023/06/04 12:35:11;;;;;;;1.92;1.50;;;19.50;47.50;;;;;;5108784;27;20077;-82
2023/06/04 12:37:37;;;;;;;3.17;1.30;;;19.60;46.80;;;;;;5111319;27;20019;-81
2023/06/04 12:40:06;;;;;;;2.50;1.40;;;19.60;46.20;;;;;;5101504;27;20425;-82
2023/06/04 12:42:32;;;;;;;5.03;1.55;;;19.70;45.80;;;;;;5121384;27;20031;-81
2023/06/04 12:44:57;;;;;;;2.85;1.30;;;19.70;48.10;;;;;;5099902;27;20727;-82
2023/06/04 12:47:23;;;;;;;2.25;1.45;;;19.70;46.40;;;;;;5113312;27;20095;-82
2023/06/04 12:49:48;;;;;;;4.80;1.83;;;19.80;46.90;;;;;;5112608;27;20110;-81